Time;durP1;ratioP1;P1;durP2;ratioP2;P2;SDS_P1;SDS_P2;PMS_P1;PMS_P2;Temp;Humidity;BMP_temperature;BMP_pressure;BME280_temperature;BME280_humidity;BME280_pressure;Samples;Min_cycle;Max_cycle;Signal;HPM_P1;HPM_P2
2021/03/20 00:00:58;;;;;;;8.60;6.07;;;-0.20;99.90;;;;;;6226873;23;20441;-85
2021/03/20 00:03:32;;;;;;;8.50;7.47;;;-0.20;99.90;;;;;;6208766;23;20474;-85
2021/03/20 00:06:56;;;;;;;8.07;7.00;;;-0.20;99.90;;;;;;6208801;23;20434;-85
2021/03/20 00:09:45;;;;;;;6.13;5.53;;;-0.30;99.90;;;;;;6019961;23;20448;-85
2021/03/20 00:12:40;;;;;;;8.77;6.80;;;-0.30;99.90;;;;;;6061258;23;20426;-85
2021/03/20 00:15:31;;;;;;;9.03;6.97;;;-0.20;99.90;;;;;;6085290;23;20447;-85
2021/03/20 00:18:19;;;;;;;7.87;7.10;;;-0.40;99.90;;;;;;6062217;23;20494;-86
2021/03/20 00:21:18;;;;;;;8.07;6.50;;;-0.40;99.90;;;;;;6085829;23;20419;-86
2021/03/20 00:24:21;;;;;;;6.43;5.83;;;-0.40;99.90;;;;;;6062194;23;20422;-86
2021/03/20 00:27:09;;;;;;;9.87;6.50;;;-0.50;99.90;;;;;;6061879;23;20511;-85
2021/03/20 00:29:58;;;;;;;7.33;6.43;;;-0.50;99.90;;;;;;6095920;23;20427;-85
2021/03/20 00:32:41;;;;;;;6.70;5.47;;;-0.50;99.90;;;;;;6060161;23;20523;-85
2021/03/20 00:35:27;;;;;;;7.03;5.70;;;-0.50;99.90;;;;;;6177603;23;20485;-86
2021/03/20 00:38:49;;;;;;;8.23;5.80;;;-0.60;99.90;;;;;;6203025;23;20443;-86
2021/03/20 00:41:40;;;;;;;8.50;7.03;;;-0.60;99.90;;;;;;6235718;23;20403;-86
2021/03/20 00:44:11;;;;;;;7.80;7.10;;;-0.60;99.90;;;;;;6209313;23;20442;-86
2021/03/20 00:47:09;;;;;;;8.80;6.50;;;-0.60;99.90;;;;;;6196117;23;20498;-86
2021/03/20 00:50:03;;;;;;;9.93;7.83;;;-0.70;99.90;;;;;;6210957;23;20434;-86
2021/03/20 00:53:04;;;;;;;10.23;7.20;;;-0.60;99.90;;;;;;6210118;23;20441;-86
2021/03/20 00:56:02;;;;;;;;;;;;;;;;;;;;;
2021/03/20 00:58:41;;;;;;;11.27;7.63;;;-0.70;99.90;;;;;;6208866;23;20803;-86
2021/03/20 01:01:54;;;;;;;;;;;;;;;;;;;;;
2021/03/20 01:04:44;;;;;;;9.07;7.10;;;-0.80;99.90;;;;;;6204843;23;20410;-86
2021/03/20 01:07:28;;;;;;;;;;;;;;;;;;;;;
2021/03/20 01:10:18;;;;;;;12.00;6.33;;;-0.80;99.90;;;;;;6196766;23;20479;-86
2021/03/20 01:12:51;;;;;;;7.53;6.33;;;-0.80;99.90;;;;;;6245018;23;20791;-86
2021/03/20 01:15:20;;;;;;;11.10;6.80;;;-0.80;99.90;;;;;;6210561;23;20492;-86
2021/03/20 01:18:00;;;;;;;;;;;;;;;;;;;;;
2021/03/20 01:20:39;;;;;;;8.83;6.37;;;-0.90;99.90;;;;;;6246684;23;20391;-86
2021/03/20 01:23:10;;;;;;;8.40;6.87;;;-0.90;99.90;;;;;;6210726;23;20478;-86
2021/03/20 01:25:41;;;;;;;7.37;6.40;;;-1.00;99.90;;;;;;6210045;23;20434;-85
2021/03/20 01:31:21;;;;;;;7.27;6.03;;;-1.00;99.90;;;;;;6209902;23;20496;-85
2021/03/20 01:33:55;;;;;;;6.43;5.53;;;-1.00;99.90;;;;;;6208449;23;20410;-86
2021/03/20 01:36:39;;;;;;;6.70;5.40;;;-1.00;99.90;;;;;;6210046;23;20433;-85
2021/03/20 01:39:52;;;;;;;7.00;5.13;;;-1.10;99.90;;;;;;6142134;23;20436;-85
2021/03/20 01:42:35;;;;;;;;;;;;;;;;;;;;;
2021/03/20 01:45:36;;;;;;;7.57;5.13;;;-1.10;99.90;;;;;;6120783;23;20417;-86
2021/03/20 01:49:16;;;;;;;;;;;;;;;;;;;;;
2021/03/20 01:52:30;;;;;;;9.87;6.23;;;-1.20;99.90;;;;;;6119192;23;20413;-85
2021/03/20 01:55:40;;;;;;;6.43;5.10;;;-1.20;99.90;;;;;;6119601;23;20485;-86
2021/03/20 01:58:32;;;;;;;6.60;5.97;;;-1.30;99.90;;;;;;6115799;23;20445;-86
2021/03/20 02:04:46;;;;;;;7.10;6.30;;;-1.30;99.90;;;;;;6210797;23;20402;-86
2021/03/20 02:07:54;;;;;;;7.17;5.70;;;-1.30;99.90;;;;;;6196840;23;20466;-86
2021/03/20 02:10:38;;;;;;;7.33;6.07;;;-1.30;99.90;;;;;;6208969;23;20426;-86
2021/03/20 02:13:48;;;;;;;6.10;5.13;;;-1.40;99.90;;;;;;6210101;23;20414;-85
2021/03/20 02:16:32;;;;;;;7.57;5.90;;;-1.40;99.90;;;;;;6209998;23;20469;-86
2021/03/20 02:20:04;;;;;;;9.03;6.33;;;-1.40;99.90;;;;;;6209853;23;20928;-85
2021/03/20 02:23:35;;;;;;;9.00;5.80;;;-1.50;99.90;;;;;;6210528;23;20469;-86
2021/03/20 02:26:44;;;;;;;9.00;6.17;;;-1.50;99.90;;;;;;6210494;23;20477;-86
2021/03/20 02:29:50;;;;;;;6.90;6.20;;;-1.50;99.90;;;;;;6210407;23;20941;-86
2021/03/20 02:32:53;;;;;;;7.70;5.80;;;-1.50;99.90;;;;;;6210360;23;20426;-86
2021/03/20 02:35:29;;;;;;;6.53;5.07;;;-1.60;99.90;;;;;;6173024;23;20415;-86
2021/03/20 02:38:07;;;;;;;9.87;6.67;;;-1.60;99.90;;;;;;6210598;23;20464;-86
2021/03/20 02:40:43;;;;;;;7.37;5.87;;;-1.60;99.90;;;;;;6209465;23;20785;-86
2021/03/20 02:43:32;;;;;;;7.63;5.37;;;-1.60;99.90;;;;;;6209617;23;20416;-86
2021/03/20 02:46:14;;;;;;;9.53;5.90;;;-1.60;99.90;;;;;;6208832;23;20429;-85
2021/03/20 02:49:07;;;;;;;9.97;6.23;;;-1.60;99.90;;;;;;6246279;23;20456;-86
2021/03/20 02:52:08;;;;;;;6.60;5.37;;;-1.60;99.90;;;;;;6248238;23;20398;-86
2021/03/20 02:54:45;;;;;;;9.83;6.07;;;-1.70;99.90;;;;;;6212317;23;20414;-86
2021/03/20 02:58:04;;;;;;;;;;;;;;;;;;;;;
2021/03/20 03:00:58;;;;;;;8.20;5.93;;;-1.70;99.90;;;;;;6175912;23;20749;-86
2021/03/20 03:04:08;;;;;;;9.97;5.80;;;-1.70;99.90;;;;;;6248098;23;20410;-85
2021/03/20 03:07:00;;;;;;;7.50;5.80;;;-1.70;99.90;;;;;;6206180;23;20452;-86
2021/03/20 03:10:19;;;;;;;6.90;6.07;;;-1.80;99.90;;;;;;6187524;23;20435;-86
2021/03/20 03:13:01;;;;;;;8.30;5.43;;;-1.80;99.90;;;;;;6153506;23;21043;-85
2021/03/20 03:15:37;;;;;;;8.67;5.90;;;-1.80;99.90;;;;;;6211060;23;20506;-86
2021/03/20 03:18:36;;;;;;;9.00;5.80;;;-1.80;99.90;;;;;;6210096;23;20457;-86
2021/03/20 03:25:23;;;;;;;10.80;5.60;;;-1.80;99.90;;;;;;6150827;23;20416;-86
2021/03/20 03:28:13;;;;;;;8.00;5.87;;;-1.90;99.90;;;;;;6154325;23;20472;-86
2021/03/20 03:30:56;;;;;;;8.83;7.00;;;-1.90;99.90;;;;;;6144510;23;20444;-86
2021/03/20 03:33:36;;;;;;;7.20;5.90;;;-1.90;99.90;;;;;;6118963;23;20414;-84
2021/03/20 03:37:00;;;;;;;6.30;5.20;;;-1.90;99.90;;;;;;6151219;23;20785;-86
2021/03/20 03:39:56;;;;;;;9.80;6.00;;;-1.90;99.90;;;;;;6157460;23;20492;-86
2021/03/20 03:43:06;;;;;;;;;;;;;;;;;;;;;
2021/03/20 03:46:49;;;;;;;8.80;6.43;;;-2.00;99.90;;;;;;6214849;23;20422;-86
2021/03/20 03:49:27;;;;;;;8.13;6.60;;;-2.00;99.90;;;;;;6207478;23;20406;-86
2021/03/20 03:52:08;;;;;;;7.50;5.63;;;-1.90;99.90;;;;;;6210354;23;20167;-86
2021/03/20 03:55:25;;;;;;;7.47;6.03;;;-1.90;99.90;;;;;;6210773;23;20478;-86
2021/03/20 03:58:20;;;;;;;6.50;5.80;;;-1.90;99.90;;;;;;6197401;23;20441;-86
2021/03/20 04:00:54;;;;;;;6.43;5.70;;;-2.00;99.90;;;;;;6211153;23;20405;-85
2021/03/20 04:03:40;;;;;;;6.20;5.60;;;-2.00;99.90;;;;;;6211826;23;20437;-86
2021/03/20 04:06:30;;;;;;;7.20;5.70;;;-2.00;99.90;;;;;;6211862;23;20415;-85
2021/03/20 04:09:37;;;;;;;9.00;5.67;;;-2.00;99.90;;;;;;6211415;23;20448;-86
2021/03/20 04:13:26;;;;;;;6.90;4.67;;;-2.00;99.90;;;;;;6231915;23;20417;-85
2021/03/20 04:16:11;;;;;;;8.47;6.90;;;-2.10;99.90;;;;;;6236468;23;20422;-85
2021/03/20 04:18:54;;;;;;;9.83;6.50;;;-2.10;99.90;;;;;;6211193;23;20444;-86
2021/03/20 04:22:02;;;;;;;;;;;;;;;;;;;;;
2021/03/20 04:25:04;;;;;;;6.23;5.73;;;-2.10;99.90;;;;;;6201934;23;20417;-85
2021/03/20 04:27:44;;;;;;;9.60;6.13;;;-2.10;99.90;;;;;;6087035;23;20933;-86
2021/03/20 04:30:23;;;;;;;7.50;5.60;;;-2.10;99.90;;;;;;6183191;23;20453;-85
2021/03/20 04:33:11;;;;;;;7.40;5.93;;;-2.10;99.90;;;;;;6210758;23;20426;-86
2021/03/20 04:36:16;;;;;;;6.53;5.23;;;-2.00;99.90;;;;;;6210767;23;20445;-86
2021/03/20 04:39:08;;;;;;;6.40;5.47;;;-2.00;99.90;;;;;;6210438;23;20493;-86
2021/03/20 04:42:05;;;;;;;8.40;5.10;;;-1.90;99.90;;;;;;6236708;23;20414;-86
2021/03/20 04:44:59;;;;;;;;;;;;;;;;;;;;;
2021/03/20 04:51:01;;;;;;;4.73;4.17;;;-1.90;99.90;;;;;;6211509;23;20439;-86
2021/03/20 04:53:36;;;;;;;7.50;5.23;;;-1.80;99.90;;;;;;6211333;23;20449;-86
2021/03/20 04:56:37;;;;;;;8.17;5.33;;;-1.80;99.90;;;;;;6247412;23;20375;-86
2021/03/20 05:02:17;;;;;;;9.07;4.97;;;-1.70;99.90;;;;;;6217804;23;20414;-86
2021/03/20 05:05:13;;;;;;;5.07;4.10;;;-1.70;99.90;;;;;;6207831;23;20418;-86
2021/03/20 05:07:47;;;;;;;4.93;4.20;;;-1.70;99.90;;;;;;6197389;23;20461;-87
2021/03/20 05:13:56;;;;;;;5.00;4.10;;;-1.60;99.90;;;;;;6089738;23;20430;-86
2021/03/20 05:16:49;;;;;;;7.60;6.47;;;-1.60;99.90;;;;;;6201215;23;20400;-86
2021/03/20 05:19:31;;;;;;;;;;;;;;;;;;;;;
2021/03/20 05:23:10;;;;;;;5.93;4.67;;;-1.50;99.90;;;;;;6141808;23;20474;-86
2021/03/20 05:26:19;;;;;;;4.57;3.83;;;-1.50;99.90;;;;;;6201288;23;20405;-86
2021/03/20 05:28:56;;;;;;;5.00;4.00;;;-1.50;99.90;;;;;;6202143;23;20742;-86
2021/03/20 05:31:50;;;;;;;4.93;4.43;;;-1.50;99.90;;;;;;6201208;23;20431;-86
2021/03/20 05:34:50;;;;;;;4.83;4.43;;;-1.50;99.90;;;;;;6187340;23;20445;-86
2021/03/20 05:41:38;;;;;;;5.47;3.73;;;-1.30;99.90;;;;;;6201752;23;20403;-86
2021/03/20 05:45:06;;;;;;;;;;;;;;;;;;;;;
2021/03/20 05:47:59;;;;;;;4.70;3.80;;;-1.30;99.90;;;;;;6201102;23;20436;-87
2021/03/20 05:51:21;;;;;;;6.23;4.03;;;-1.30;99.90;;;;;;6201355;23;20972;-87
2021/03/20 05:54:30;;;;;;;5.77;4.50;;;-1.20;99.90;;;;;;6200839;23;20538;-86
2021/03/20 05:58:01;;;;;;;4.23;3.70;;;-1.20;99.90;;;;;;6145813;23;20468;-86
2021/03/20 06:01:01;;;;;;;6.73;4.20;;;-1.20;99.90;;;;;;6111170;23;20423;-86
2021/03/20 06:04:09;;;;;;;5.97;3.87;;;-1.10;99.90;;;;;;6145822;23;20415;-86
2021/03/20 06:07:26;;;;;;;4.73;3.70;;;-1.10;99.90;;;;;;6110955;23;20414;-86
2021/03/20 06:10:17;;;;;;;6.10;3.47;;;-1.10;99.90;;;;;;6108114;23;20441;-88
2021/03/20 06:13:00;;;;;;;6.07;4.00;;;-1.00;99.90;;;;;;6156665;23;20406;-88
2021/03/20 06:16:04;;;;;;;4.53;3.00;;;-1.00;99.90;;;;;;6228979;23;20406;-87
2021/03/20 06:19:37;;;;;;;3.77;3.40;;;-1.00;99.90;;;;;;6204816;23;20428;-88
2021/03/20 06:22:50;;;;;;;;;;;;;;;;;;;;;
2021/03/20 06:26:02;;;;;;;3.40;2.70;;;-0.80;99.90;;;;;;6230706;23;20418;-88
2021/03/20 06:29:11;;;;;;;5.90;3.40;;;-0.90;99.90;;;;;;6193402;23;20456;-88
2021/03/20 06:32:41;;;;;;;3.90;3.60;;;-0.80;99.90;;;;;;6116055;23;20529;-88
2021/03/20 06:35:54;;;;;;;6.60;3.63;;;-0.80;99.90;;;;;;6109389;23;20777;-88
2021/03/20 06:42:41;;;;;;;;;;;;;;;;;;;;;
2021/03/20 06:45:42;;;;;;;4.20;3.80;;;-0.50;99.90;;;;;;6141225;23;20410;-88
2021/03/20 06:49:03;;;;;;;4.03;3.20;;;-0.50;99.90;;;;;;6188391;23;20443;-87
2021/03/20 06:51:50;;;;;;;4.40;3.10;;;-0.50;99.90;;;;;;6096502;23;20421;-87
2021/03/20 06:55:32;;;;;;;;;;;;;;;;;;;;;
2021/03/20 07:02:20;;;;;;;6.50;3.23;;;-0.30;99.90;;;;;;6223742;23;20406;-85
2021/03/20 07:06:15;;;;;;;;;;;;;;;;;;;;;
2021/03/20 07:09:51;;;;;;;;;;;;;;;;;;;;;
2021/03/20 07:13:36;;;;;;;7.00;3.33;;;-0.10;99.90;;;;;;6051129;23;20423;-86
2021/03/20 07:20:24;;;;;;;4.60;3.60;;;0.10;99.90;;;;;;5928725;23;20501;-86
2021/03/20 07:23:11;;;;;;;4.93;3.33;;;0.20;99.90;;;;;;6152038;23;20422;-86
2021/03/20 07:25:47;;;;;;;5.23;3.70;;;0.20;99.90;;;;;;6242051;23;20411;-86
2021/03/20 07:28:17;;;;;;;5.57;3.37;;;0.30;99.90;;;;;;6205876;23;20521;-86
2021/03/20 07:34:53;;;;;;;4.03;3.60;;;0.40;99.90;;;;;;6227650;23;20471;-86
2021/03/20 07:41:09;;;;;;;3.50;3.20;;;0.60;99.90;;;;;;6171323;23;20419;-86
2021/03/20 07:43:51;;;;;;;;;;;;;;;;;;;;;
2021/03/20 07:47:54;;;;;;;;;;;;;;;;;;;;;
2021/03/20 07:57:44;;;;;;;;;;;;;;;;;;;;;
2021/03/20 08:00:36;;;;;;;;;;;;;;;;;;;;;
2021/03/20 08:03:31;;;;;;;4.37;3.13;;;1.30;99.90;;;;;;5103204;28;20452;-86
2021/03/20 08:06:50;;;;;;;7.17;2.83;;;1.30;99.90;;;;;;5105481;28;20458;-86
2021/03/20 08:09:27;;;;;;;4.70;2.67;;;1.40;99.90;;;;;;5105855;28;20473;-86
2021/03/20 08:12:13;;;;;;;5.77;3.40;;;1.40;99.90;;;;;;5105630;28;20878;-86
2021/03/20 08:15:05;;;;;;;4.20;2.80;;;1.50;99.90;;;;;;5104598;28;20452;-86
2021/03/20 08:17:33;;;;;;;4.10;2.67;;;1.60;99.90;;;;;;5105500;28;20863;-86
2021/03/20 08:20:02;;;;;;;5.20;2.63;;;1.70;99.90;;;;;;5105311;28;20448;-87
2021/03/20 08:22:43;;;;;;;6.90;3.33;;;1.70;99.90;;;;;;5104737;28;20448;-86
2021/03/20 08:25:27;;;;;;;4.60;2.57;;;1.80;99.90;;;;;;5102929;28;20507;-86
2021/03/20 08:28:10;;;;;;;2.90;2.53;;;1.90;99.90;;;;;;5105663;28;20533;-86
2021/03/20 08:30:55;;;;;;;4.30;2.97;;;2.00;99.90;;;;;;5104995;28;20480;-86
2021/03/20 08:33:46;;;;;;;3.53;2.90;;;2.10;99.90;;;;;;5104860;28;20457;-86
2021/03/20 08:36:26;;;;;;;3.30;2.60;;;2.10;99.90;;;;;;5104858;28;20440;-86
2021/03/20 08:39:20;;;;;;;3.70;2.67;;;2.20;99.90;;;;;;5100446;28;20464;-86
2021/03/20 08:41:59;;;;;;;4.43;2.57;;;2.30;99.90;;;;;;5104725;28;20472;-86
2021/03/20 08:44:46;;;;;;;4.67;3.13;;;2.40;99.90;;;;;;5097522;28;20436;-86
2021/03/20 08:47:36;;;;;;;3.20;2.87;;;2.60;99.90;;;;;;5096109;28;20448;-87
2021/03/20 08:50:17;;;;;;;3.70;2.73;;;2.60;99.90;;;;;;5097351;28;20439;-86
2021/03/20 08:53:14;;;;;;;3.43;2.30;;;2.70;99.90;;;;;;5096601;28;20468;-85
2021/03/20 08:56:33;;;;;;;3.07;2.57;;;2.80;99.90;;;;;;5095682;28;20535;-87
2021/03/20 08:59:47;;;;;;;2.93;2.60;;;2.90;99.90;;;;;;5075602;28;20479;-86
2021/03/20 09:02:36;;;;;;;4.47;2.33;;;3.00;99.90;;;;;;5101103;28;20459;-87
2021/03/20 09:05:23;;;;;;;4.30;2.83;;;3.10;99.90;;;;;;5075342;28;20448;-87
2021/03/20 09:08:33;;;;;;;3.30;2.30;;;3.30;99.90;;;;;;5083495;28;20522;-87
2021/03/20 09:11:26;;;;;;;3.00;2.30;;;3.40;99.90;;;;;;5083451;28;21025;-87
2021/03/20 09:14:09;;;;;;;3.00;2.40;;;3.50;99.90;;;;;;5082506;28;20803;-87
2021/03/20 09:16:47;;;;;;;4.13;2.30;;;3.60;99.90;;;;;;5081830;28;21008;-87
2021/03/20 09:19:59;;;;;;;4.60;2.90;;;3.70;99.90;;;;;;5083808;28;20487;-87
2021/03/20 09:22:36;;;;;;;2.77;2.40;;;3.80;99.90;;;;;;5082139;28;20501;-87
2021/03/20 09:25:19;;;;;;;2.87;2.03;;;3.80;99.90;;;;;;5082567;28;20449;-87
2021/03/20 09:28:13;;;;;;;4.43;2.17;;;3.90;99.90;;;;;;5083439;28;20548;-87
2021/03/20 09:30:43;;;;;;;3.17;2.73;;;3.90;99.90;;;;;;5084537;28;20460;-85
2021/03/20 09:33:29;;;;;;;2.97;2.10;;;3.90;99.90;;;;;;5091654;28;20472;-86
2021/03/20 09:36:01;;;;;;;2.50;2.30;;;4.00;99.90;;;;;;5099932;28;20429;-86
2021/03/20 09:39:01;;;;;;;3.07;2.30;;;4.00;99.90;;;;;;5097197;28;20475;-86
2021/03/20 09:41:46;;;;;;;2.60;1.90;;;4.10;99.90;;;;;;5090350;28;20520;-86
2021/03/20 09:44:48;;;;;;;2.73;2.00;;;4.10;99.90;;;;;;5093014;28;20496;-86
2021/03/20 09:52:10;;;;;;;;;;;;;;;;;;;;;
2021/03/20 09:55:17;;;;;;;;;;;;;;;;;;;;;
2021/03/20 09:58:53;;;;;;;;;;;;;;;;;;;;;
2021/03/20 10:02:24;;;;;;;4.63;2.27;;;4.40;99.90;;;;;;5083468;28;20446;-86
2021/03/20 10:12:47;;;;;;;3.57;2.53;;;4.50;99.90;;;;;;5052511;28;20981;-86
2021/03/20 10:16:25;;;;;;;3.27;2.50;;;4.60;99.90;;;;;;5007293;28;20455;-86
2021/03/20 10:19:29;;;;;;;;;;;;;;;;;;;;;
2021/03/20 10:22:04;;;;;;;4.40;2.70;;;4.70;99.90;;;;;;5009172;28;20440;-86
2021/03/20 10:28:15;;;;;;;3.77;2.50;;;4.80;99.90;;;;;;4931137;29;20474;-86
2021/03/20 10:37:44;;;;;;;3.57;3.27;;;5.10;99.90;;;;;;4904904;29;20440;-86
2021/03/20 10:40:29;;;;;;;4.80;3.77;;;5.20;99.90;;;;;;4950068;29;20529;-86
2021/03/20 10:43:03;;;;;;;4.40;4.00;;;5.30;99.90;;;;;;4967219;28;20451;-86
2021/03/20 10:49:04;;;;;;;;;;;;;;;;;;;;;
2021/03/20 10:51:55;;;;;;;3.90;3.50;;;5.50;99.90;;;;;;5045051;28;20971;-87
2021/03/20 10:54:34;;;;;;;5.27;4.77;;;5.50;99.90;;;;;;5028653;28;20454;-86
2021/03/20 10:57:10;;;;;;;4.77;4.23;;;5.60;99.90;;;;;;5028994;28;20438;-85
2021/03/20 10:59:47;;;;;;;4.90;4.13;;;5.60;99.90;;;;;;5028896;28;21018;-85
2021/03/20 11:02:52;;;;;;;4.40;4.00;;;5.70;99.90;;;;;;5048077;28;20837;-87
2021/03/20 11:05:41;;;;;;;5.50;3.60;;;6.00;99.90;;;;;;5087116;28;20202;-87
2021/03/20 11:12:35;;;;;;;5.65;5.05;;;6.10;99.90;;;;;;5044991;28;20446;-87
2021/03/20 11:20:05;;;;;;;5.90;5.40;;;6.40;99.90;;;;;;5039500;28;21001;-87
2021/03/20 11:22:43;;;;;;;6.13;5.10;;;6.40;99.90;;;;;;5081986;28;20998;-87
2021/03/20 11:25:20;;;;;;;7.50;5.50;;;6.50;99.90;;;;;;5082617;28;20568;-87
2021/03/20 11:28:08;;;;;;;7.03;5.50;;;6.60;99.90;;;;;;5084867;28;20465;-87
2021/03/20 11:30:46;;;;;;;6.37;5.40;;;6.60;99.90;;;;;;5087197;28;20450;-87
2021/03/20 11:33:44;;;;;;;6.77;5.30;;;6.60;99.90;;;;;;5083860;28;20472;-87
2021/03/20 11:36:47;;;;;;;5.77;5.17;;;6.60;99.90;;;;;;5027767;28;20439;-87
2021/03/20 11:39:17;;;;;;;5.40;4.90;;;6.70;99.90;;;;;;5029357;28;20474;-88
2021/03/20 11:42:10;;;;;;;5.20;4.70;;;6.70;99.90;;;;;;5031290;28;20477;-87
2021/03/20 11:44:53;;;;;;;6.23;5.33;;;6.80;99.90;;;;;;5034274;28;20451;-87
2021/03/20 11:51:55;;;;;;;6.00;5.50;;;6.80;99.90;;;;;;5016770;28;20456;-88
2021/03/20 11:58:22;;;;;;;6.03;5.43;;;7.00;99.90;;;;;;5076649;28;20473;-88
2021/03/20 12:04:32;;;;;;;6.17;5.37;;;7.20;99.90;;;;;;5082050;28;20485;-88
2021/03/20 12:07:45;;;;;;;6.40;5.70;;;7.20;99.90;;;;;;5083673;28;20576;-88
2021/03/20 12:10:16;;;;;;;6.57;5.97;;;7.20;99.90;;;;;;5084196;28;20466;-88
2021/03/20 12:12:56;;;;;;;7.70;5.47;;;7.20;99.90;;;;;;5079786;28;20491;-89
2021/03/20 12:15:31;;;;;;;5.13;4.63;;;7.30;99.90;;;;;;5079746;28;20501;-88
2021/03/20 12:18:13;;;;;;;7.60;5.87;;;7.40;99.90;;;;;;5078010;28;20469;-88
2021/03/20 12:25:20;;;;;;;6.23;5.63;;;7.50;99.90;;;;;;5003606;28;20454;-88
2021/03/20 12:28:36;;;;;;;5.93;5.20;;;7.60;99.90;;;;;;4920487;29;20484;-87
2021/03/20 12:31:25;;;;;;;6.00;5.20;;;7.60;99.90;;;;;;4943498;28;20586;-87
2021/03/20 12:34:02;;;;;;;5.70;5.20;;;7.60;99.90;;;;;;5002065;28;20471;-87
2021/03/20 12:36:40;;;;;;;5.73;5.13;;;7.60;99.90;;;;;;5017554;28;20930;-87
2021/03/20 12:39:09;;;;;;;6.23;5.33;;;7.60;99.90;;;;;;5018858;28;20509;-88
2021/03/20 12:41:40;;;;;;;5.47;5.00;;;7.60;99.90;;;;;;5021590;28;20447;-88
2021/03/20 12:44:14;;;;;;;6.40;5.80;;;7.70;99.90;;;;;;5022749;28;20443;-88
2021/03/20 12:55:07;;;;;;;;;;;;;;;;;;;;;
2021/03/20 12:58:06;;;;;;;6.80;5.63;;;7.80;99.90;;;;;;5082228;28;20495;-87
2021/03/20 13:08:21;;;;;;;7.77;5.93;;;7.90;99.90;;;;;;5028279;28;20470;-88
2021/03/20 13:10:48;;;;;;;6.20;5.60;;;8.00;99.90;;;;;;5040479;28;20513;-89
2021/03/20 13:13:22;;;;;;;6.60;6.00;;;8.00;99.90;;;;;;5024702;28;20482;-88
2021/03/20 13:16:38;;;;;;;6.53;5.83;;;8.00;99.90;;;;;;5022175;28;20443;-88
2021/03/20 13:31:35;;;;;;;7.95;6.75;;;8.10;99.90;;;;;;4900851;28;20574;-83
2021/03/20 13:41:22;;;;;;;7.17;6.53;;;8.00;99.90;;;;;;4946196;28;20451;-87
2021/03/20 13:43:52;;;;;;;8.27;6.80;;;8.00;99.90;;;;;;5025945;28;20439;-87
2021/03/20 13:46:20;;;;;;;8.17;7.33;;;8.00;99.90;;;;;;5026044;28;20968;-88
2021/03/20 13:49:37;;;;;;;7.77;7.07;;;8.00;99.90;;;;;;5037594;28;20453;-86
2021/03/20 13:56:27;;;;;;;8.40;6.93;;;7.90;99.90;;;;;;4917018;29;20465;-87
2021/03/20 13:58:57;;;;;;;7.30;6.70;;;7.90;99.90;;;;;;4983632;28;21051;-88
2021/03/20 14:01:25;;;;;;;8.13;7.23;;;7.80;99.90;;;;;;5004618;28;20455;-88
2021/03/20 14:03:53;;;;;;;8.00;7.30;;;7.80;99.90;;;;;;5002905;28;20448;-87
2021/03/20 14:06:24;;;;;;;8.40;7.60;;;7.80;99.90;;;;;;5002903;28;20535;-87
2021/03/20 14:08:52;;;;;;;7.53;6.57;;;7.80;99.90;;;;;;5002927;28;20475;-86
2021/03/20 14:11:21;;;;;;;8.63;7.83;;;7.70;99.90;;;;;;5003928;28;20444;-87
2021/03/20 14:13:58;;;;;;;7.90;7.20;;;7.70;99.90;;;;;;5003668;28;20887;-87
2021/03/20 14:16:28;;;;;;;7.77;7.07;;;7.70;99.90;;;;;;5004798;28;20455;-86
2021/03/20 14:18:57;;;;;;;7.63;7.00;;;7.70;99.90;;;;;;5005206;28;20475;-86
2021/03/20 14:21:26;;;;;;;7.10;6.40;;;7.70;99.90;;;;;;5003265;28;20456;-86
2021/03/20 14:24:02;;;;;;;7.40;6.73;;;7.70;99.90;;;;;;5001687;28;20451;-87
2021/03/20 14:27:00;;;;;;;8.77;6.30;;;7.70;99.90;;;;;;5006195;28;20487;-86
2021/03/20 14:29:30;;;;;;;7.17;6.57;;;7.70;99.90;;;;;;5042785;28;21004;-89
2021/03/20 14:31:57;;;;;;;8.30;7.10;;;7.70;99.90;;;;;;5083809;28;20472;-89
2021/03/20 14:34:32;;;;;;;8.47;7.60;;;7.70;99.90;;;;;;5085573;28;21060;-88
2021/03/20 14:37:02;;;;;;;10.63;8.70;;;7.70;99.90;;;;;;5084123;28;20443;-88
2021/03/20 14:39:31;;;;;;;8.77;7.97;;;7.70;99.90;;;;;;5079560;28;20479;-88
2021/03/20 14:41:58;;;;;;;8.90;8.00;;;7.70;99.90;;;;;;5082160;28;20491;-90
2021/03/20 14:44:28;;;;;;;8.93;8.17;;;7.60;99.90;;;;;;5083711;28;20532;-88
2021/03/20 14:47:01;;;;;;;10.30;8.77;;;7.60;99.90;;;;;;5082060;28;20450;-88
2021/03/20 14:53:53;;;;;;;9.03;8.13;;;7.60;99.90;;;;;;5026565;28;20605;-87
2021/03/20 15:00:46;;;;;;;9.70;8.80;;;7.60;99.90;;;;;;4858455;28;20447;-87
2021/03/20 15:03:51;;;;;;;9.33;8.43;;;7.50;99.90;;;;;;5016485;28;20442;-88
2021/03/20 15:40:02;;;;;;;;;;;;;;;;;;;;;
2021/03/20 15:52:25;;;;;;;11.73;10.60;;;7.40;99.90;;;;;;4869874;29;20478;-87
2021/03/20 15:55:11;;;;;;;12.30;11.20;;;7.40;99.90;;;;;;4884839;29;20555;-87
2021/03/20 15:58:00;;;;;;;11.10;10.10;;;7.40;99.90;;;;;;4917473;29;20506;-86
2021/03/20 16:01:30;;;;;;;12.07;10.97;;;7.40;99.90;;;;;;4961333;28;20450;-86
2021/03/20 16:04:32;;;;;;;11.60;10.60;;;7.30;99.90;;;;;;4947307;29;20519;-86
2021/03/20 16:07:01;;;;;;;11.70;10.60;;;7.30;99.90;;;;;;4960279;28;20445;-86
2021/03/20 16:10:06;;;;;;;12.23;11.03;;;7.30;99.90;;;;;;4963502;28;20481;-86
2021/03/20 16:17:17;;;;;;;11.57;10.47;;;7.30;99.90;;;;;;4982927;28;20824;-85
2021/03/20 16:19:53;;;;;;;13.10;11.90;;;7.30;99.90;;;;;;4966904;28;20869;-85
2021/03/20 16:22:21;;;;;;;12.50;11.40;;;7.30;99.90;;;;;;4967840;28;20441;-85
2021/03/20 16:25:33;;;;;;;11.10;10.10;;;7.30;99.90;;;;;;4966549;28;20449;-85
2021/03/20 16:28:14;;;;;;;11.57;10.57;;;7.30;99.90;;;;;;4969832;28;20529;-85
2021/03/20 16:38:10;;;;;;;12.00;10.83;;;7.20;99.90;;;;;;5009265;28;20446;-86
2021/03/20 16:44:23;;;;;;;11.57;10.30;;;7.10;99.90;;;;;;5004146;28;20493;-85
2021/03/20 16:47:17;;;;;;;10.30;9.27;;;7.10;99.90;;;;;;5027200;28;20442;-86
2021/03/20 16:49:47;;;;;;;10.60;9.63;;;7.10;99.90;;;;;;5044995;28;20510;-86
2021/03/20 16:52:22;;;;;;;10.80;9.70;;;7.00;99.90;;;;;;5044191;28;20590;-86
2021/03/20 16:54:51;;;;;;;10.20;9.30;;;7.00;99.90;;;;;;5077064;28;20500;-87
2021/03/20 16:57:20;;;;;;;11.43;10.40;;;7.00;99.90;;;;;;5087682;28;20444;-87
2021/03/20 16:59:49;;;;;;;9.67;8.87;;;7.00;99.90;;;;;;5085109;28;20460;-86
2021/03/20 17:02:17;;;;;;;10.40;9.50;;;7.00;99.90;;;;;;5077509;28;20551;-85
2021/03/20 17:04:47;;;;;;;11.77;10.67;;;6.90;99.90;;;;;;5079025;28;20950;-85
2021/03/20 17:08:02;;;;;;;12.60;11.40;;;6.90;99.90;;;;;;5083020;28;20778;-88
2021/03/20 17:10:42;;;;;;;9.77;8.90;;;6.90;99.90;;;;;;5082221;28;20481;-86
2021/03/20 17:13:10;;;;;;;10.10;9.13;;;6.90;99.90;;;;;;5082143;28;20461;-85
2021/03/20 17:15:40;;;;;;;10.87;9.77;;;6.90;99.90;;;;;;5069296;22;20492;-86
2021/03/20 17:18:17;;;;;;;9.57;8.70;;;6.90;99.90;;;;;;5014229;22;20500;-86
2021/03/20 17:20:48;;;;;;;10.10;9.10;;;6.90;99.90;;;;;;5003335;28;20449;-86
2021/03/20 17:23:23;;;;;;;9.60;8.13;;;6.90;99.90;;;;;;5002487;28;20440;-86
2021/03/20 17:30:27;;;;;;;10.60;9.60;;;6.80;99.90;;;;;;4954156;29;21066;-86
2021/03/20 17:32:57;;;;;;;10.48;9.48;;;6.80;99.90;;;;;;4945999;29;20451;-87
2021/03/20 17:35:28;;;;;;;9.60;8.70;;;6.80;99.90;;;;;;4978049;28;20198;-86
2021/03/20 17:37:59;;;;;;;12.60;10.43;;;6.80;99.90;;;;;;5002949;28;20540;-86
2021/03/20 17:40:48;;;;;;;11.60;10.50;;;6.80;99.90;;;;;;5002068;28;20465;-86
2021/03/20 17:43:21;;;;;;;11.23;10.13;;;6.80;99.90;;;;;;4997076;28;20857;-86
2021/03/20 17:46:14;;;;;;;9.63;8.73;;;6.90;99.90;;;;;;5001893;28;20197;-86
2021/03/20 17:49:03;;;;;;;10.90;9.77;;;6.90;99.90;;;;;;5001932;28;20559;-87
2021/03/20 17:52:18;;;;;;;10.83;9.70;;;6.80;99.90;;;;;;4980689;28;20456;-86
2021/03/20 17:54:49;;;;;;;10.30;9.27;;;6.90;99.90;;;;;;4963257;28;20598;-86
2021/03/20 17:57:34;;;;;;;11.40;10.40;;;6.80;99.90;;;;;;4960857;29;20447;-87
2021/03/20 18:00:49;;;;;;;11.10;10.10;;;6.70;99.90;;;;;;4960729;29;20470;-86
2021/03/20 18:03:21;;;;;;;11.33;9.73;;;6.70;99.90;;;;;;4945903;29;20887;-86
2021/03/20 18:05:59;;;;;;;9.97;9.07;;;6.70;99.90;;;;;;4962168;29;20446;-88
2021/03/20 18:08:44;;;;;;;10.17;9.27;;;6.60;99.90;;;;;;4945449;29;20474;-86
2021/03/20 18:11:18;;;;;;;10.30;9.30;;;6.60;99.90;;;;;;4945822;29;20451;-86
2021/03/20 18:13:45;;;;;;;10.43;9.33;;;6.60;99.90;;;;;;4946383;29;20474;-86
2021/03/20 18:16:14;;;;;;;11.83;10.70;;;6.60;99.90;;;;;;4961140;29;20875;-86
2021/03/20 18:18:41;;;;;;;10.83;9.83;;;6.60;99.90;;;;;;4945242;29;20478;-87
2021/03/20 18:21:13;;;;;;;11.00;10.00;;;6.60;99.90;;;;;;4945703;29;20454;-86
2021/03/20 18:23:41;;;;;;;10.97;9.97;;;6.60;99.90;;;;;;4998582;28;20452;-86
2021/03/20 18:26:08;;;;;;;10.13;9.13;;;6.50;99.90;;;;;;5000847;28;20476;-86
2021/03/20 18:28:39;;;;;;;11.27;10.27;;;6.50;99.90;;;;;;5000417;28;20472;-86
2021/03/20 18:31:10;;;;;;;11.60;10.50;;;6.50;99.90;;;;;;5000502;28;20455;-86
2021/03/20 18:33:39;;;;;;;11.67;10.50;;;6.50;99.90;;;;;;5002340;28;20989;-86
2021/03/20 18:36:07;;;;;;;10.23;9.43;;;6.40;99.90;;;;;;5001363;28;20439;-86
2021/03/20 18:38:36;;;;;;;10.23;9.33;;;6.40;99.90;;;;;;5000465;28;20507;-86
2021/03/20 18:41:05;;;;;;;12.03;10.97;;;6.40;99.90;;;;;;5000949;28;20457;-86
2021/03/20 18:43:34;;;;;;;12.27;11.07;;;6.40;99.90;;;;;;5000637;28;20456;-86
2021/03/20 18:46:01;;;;;;;10.87;9.80;;;6.40;99.90;;;;;;5000341;28;20448;-85
2021/03/20 18:48:29;;;;;;;11.97;10.77;;;6.40;99.90;;;;;;4999915;28;20468;-85
2021/03/20 18:50:58;;;;;;;10.47;9.47;;;6.40;99.90;;;;;;4999792;28;20453;-86
2021/03/20 18:53:26;;;;;;;11.37;10.17;;;6.40;99.90;;;;;;4999973;28;20491;-86